createdAt,value
2022-12-08T00:00:01.702Z,97339.22
2022-12-08T00:02:38.694Z,97343.84
2022-12-08T00:05:24.455Z,97348.28
2022-12-08T00:08:09.677Z,97336.09
2022-12-08T00:10:51.537Z,97341.88
2022-12-08T00:13:18.072Z,97328.84
2022-12-08T00:15:44.498Z,97333.56
2022-12-08T00:18:10.945Z,97325.25
2022-12-08T00:20:37.473Z,97323.75
2022-12-08T00:23:04.358Z,97331.16
2022-12-08T00:25:31.557Z,97325.47
2022-12-08T00:27:58.040Z,97322.94
2022-12-08T00:30:24.772Z,97324.75
2022-12-08T00:32:51.204Z,97316.72
2022-12-08T00:35:17.641Z,97327.63
2022-12-08T00:37:44.085Z,97325.66
2022-12-08T00:40:10.629Z,97324.72
2022-12-08T00:42:37.133Z,97316.03
2022-12-08T00:45:03.713Z,97317.47
2022-12-08T00:47:30.174Z,97327.06
2022-12-08T00:49:56.609Z,97314.91
2022-12-08T00:52:23.088Z,97318.91
2022-12-08T00:54:49.528Z,97319.66
2022-12-08T00:57:16.027Z,97317.56
2022-12-08T00:59:42.448Z,97311.03
2022-12-08T01:02:08.896Z,97314.53
2022-12-08T01:04:35.940Z,97318.44
2022-12-08T01:07:02.408Z,97320.97
2022-12-08T01:09:28.879Z,97315.28
2022-12-08T01:11:55.337Z,97322.06
2022-12-08T01:14:21.786Z,97311.41
2022-12-08T01:16:48.358Z,97316.25
2022-12-08T01:19:15.553Z,97323.28
2022-12-08T01:21:42.538Z,97323.66
2022-12-08T01:24:12.852Z,97313.75
2022-12-08T01:26:39.446Z,97317.69
2022-12-08T01:29:05.908Z,97320.34
2022-12-08T01:31:32.547Z,97316.72
2022-12-08T01:33:58.957Z,97315.03
2022-12-08T01:36:27.007Z,97304.16
2022-12-08T01:38:53.909Z,97293.25
2022-12-08T01:41:21.615Z,97292.44
2022-12-08T01:43:51.056Z,97300.31
2022-12-08T01:46:17.513Z,97289.41
2022-12-08T01:48:44.018Z,97286.59
2022-12-08T01:51:10.497Z,97290.09
2022-12-08T01:53:37.047Z,97291.22
2022-12-08T01:56:06.925Z,97281.41
2022-12-08T01:58:37.807Z,97282.59
2022-12-08T02:01:04.293Z,97279.69
2022-12-08T02:03:42.463Z,97277.38
2022-12-08T02:06:08.937Z,97275.66
2022-12-08T02:08:35.967Z,97272.19
2022-12-08T02:11:02.433Z,97270.50
2022-12-08T02:13:28.859Z,97267.34
2022-12-08T02:15:58.106Z,97253.81
2022-12-08T02:18:30.599Z,97257.41
2022-12-08T02:21:29.569Z,97262.03
2022-12-08T02:23:59.134Z,97258.41
2022-12-08T02:26:58.174Z,97248.69
2022-12-08T02:29:37.665Z,97251.13
2022-12-08T02:32:12.956Z,97250.16
2022-12-08T02:34:43.637Z,97251.47
2022-12-08T02:37:16.923Z,97257.06
2022-12-08T02:39:58.131Z,97239.75
2022-12-08T02:42:30.775Z,97247.97
2022-12-08T02:45:04.095Z,97241.56
2022-12-08T02:47:32.072Z,97238.78
2022-12-08T02:49:58.861Z,97238.44
2022-12-08T02:52:25.296Z,97233.91
2022-12-08T02:54:53.835Z,97242.03
2022-12-08T02:57:20.263Z,97235.03
2022-12-08T03:00:16.463Z,97233.69
2022-12-08T03:02:46.877Z,97232.63
2022-12-08T03:05:25.986Z,97238.31
2022-12-08T03:08:11.062Z,97245.31
2022-12-08T03:10:40.736Z,97243.38
2022-12-08T03:13:13.257Z,97229.34
2022-12-08T03:15:40.630Z,97230.53
2022-12-08T03:18:09.358Z,97228.09
2022-12-08T03:20:36.067Z,97231.50
2022-12-08T03:23:05.476Z,97226.03
2022-12-08T03:25:33.970Z,97231.81
2022-12-08T03:28:00.392Z,97220.59
2022-12-08T03:30:28.647Z,97222.88
2022-12-08T03:32:58.938Z,97223.25
2022-12-08T03:35:30.514Z,97221.81
2022-12-08T03:38:04.707Z,97216.50
2022-12-08T03:40:31.378Z,97206.53
2022-12-08T03:42:57.781Z,97216.94
2022-12-08T03:45:24.313Z,97216.22
2022-12-08T03:47:51.306Z,97216.44
2022-12-08T03:50:17.954Z,97204.34
2022-12-08T03:52:44.432Z,97201.59
2022-12-08T03:55:10.995Z,97192.97
2022-12-08T03:57:37.479Z,97182.13
2022-12-08T04:00:05.114Z,97189.41
2022-12-08T04:02:32.102Z,97189.41
2022-12-08T04:04:58.584Z,97191.31
2022-12-08T04:07:25.013Z,97183.34
2022-12-08T04:09:51.485Z,97193.97
2022-12-08T04:12:17.941Z,97194.81
2022-12-08T04:14:44.405Z,97192.28
2022-12-08T04:17:10.888Z,97181.63
2022-12-08T04:19:37.323Z,97179.00
2022-12-08T04:22:03.808Z,97174.84
2022-12-08T04:24:30.322Z,97173.19
2022-12-08T04:26:56.725Z,97175.94
2022-12-08T04:29:23.310Z,97178.25
2022-12-08T04:31:49.912Z,97177.41
2022-12-08T04:34:16.588Z,97179.47
2022-12-08T04:36:43.032Z,97168.81
2022-12-08T04:39:09.513Z,97161.78
2022-12-08T04:41:35.933Z,97156.22
2022-12-08T04:44:02.519Z,97158.78
2022-12-08T04:46:29.037Z,97168.59
2022-12-08T04:48:55.493Z,97161.78
2022-12-08T04:51:21.954Z,97162.16
2022-12-08T04:53:48.440Z,97157.19
2022-12-08T04:56:16.018Z,97162.53
2022-12-08T04:58:42.663Z,97156.25
2022-12-08T05:01:11.418Z,97151.41
2022-12-08T05:03:37.917Z,97144.63
2022-12-08T05:06:04.689Z,97148.00
2022-12-08T05:08:32.113Z,97150.19
2022-12-08T05:11:05.908Z,97137.13
2022-12-08T05:13:32.461Z,97140.75
2022-12-08T05:16:06.488Z,97131.31
2022-12-08T05:18:33.272Z,97132.00
2022-12-08T05:20:59.977Z,97146.06
2022-12-08T05:23:26.798Z,97147.41
2022-12-08T05:25:53.447Z,97147.19
2022-12-08T05:28:40.719Z,97134.44
2022-12-08T05:31:06.527Z,97130.31
2022-12-08T05:33:32.998Z,97137.06
2022-12-08T05:35:59.492Z,97136.13
2022-12-08T05:38:25.953Z,97140.25
2022-12-08T05:40:52.388Z,97143.28
2022-12-08T05:43:18.800Z,97141.94
2022-12-08T05:45:45.259Z,97146.50
2022-12-08T05:48:11.721Z,97139.69
2022-12-08T05:50:38.162Z,97135.84
2022-12-08T05:53:04.609Z,97127.81
2022-12-08T05:55:31.148Z,97130.50
2022-12-08T05:57:57.564Z,97128.69
2022-12-08T06:00:24.282Z,97129.06
2022-12-08T06:02:50.817Z,97127.63
2022-12-08T06:05:17.440Z,97119.09
2022-12-08T06:07:43.977Z,97117.81
2022-12-08T06:10:10.685Z,97121.47
2022-12-08T06:12:37.201Z,97125.72
2022-12-08T06:15:04.057Z,97120.16
2022-12-08T06:17:30.463Z,97127.69
2022-12-08T06:19:56.916Z,97125.25
2022-12-08T06:22:23.336Z,97125.75
2022-12-08T06:24:49.797Z,97123.06
2022-12-08T06:27:16.240Z,97110.69
2022-12-08T06:29:42.690Z,97113.34
2022-12-08T06:32:09.199Z,97115.78
2022-12-08T06:34:35.724Z,97110.22
2022-12-08T06:37:02.187Z,97112.66
2022-12-08T06:39:28.886Z,97105.84
2022-12-08T06:42:14.117Z,97103.78
2022-12-08T06:44:40.593Z,97102.56
2022-12-08T06:47:07.054Z,97109.38
2022-12-08T06:49:33.525Z,97113.16
2022-12-08T06:52:00.068Z,97114.84
2022-12-08T06:54:26.729Z,97129.34
2022-12-08T06:56:53.269Z,97127.41
2022-12-08T06:59:19.744Z,97127.56
2022-12-08T07:01:46.505Z,97122.44
2022-12-08T07:04:13.157Z,97118.19
2022-12-08T07:06:39.694Z,97116.94
2022-12-08T07:09:06.439Z,97121.91
2022-12-08T07:11:32.891Z,97110.56
2022-12-08T07:13:59.365Z,97102.34
2022-12-08T07:16:25.939Z,97091.25
2022-12-08T07:18:52.423Z,97104.16
2022-12-08T07:21:18.858Z,97106.34
2022-12-08T07:23:46.220Z,97108.78
2022-12-08T07:26:13.227Z,97113.03
2022-12-08T07:28:40.665Z,97109.50
2022-12-08T07:31:08.358Z,97118.38
2022-12-08T07:33:36.066Z,97119.66
2022-12-08T07:36:04.516Z,97112.28
2022-12-08T07:38:31.561Z,97113.28
2022-12-08T07:40:58.008Z,97115.81
2022-12-08T07:43:24.591Z,97115.06
2022-12-08T07:45:51.168Z,97117.28
2022-12-08T07:48:17.733Z,97110.19
2022-12-08T07:50:44.723Z,97110.06
2022-12-08T07:53:11.198Z,97105.03
2022-12-08T07:55:44.250Z,97109.69
2022-12-08T07:58:11.328Z,97106.69
2022-12-08T08:00:37.870Z,97113.34
2022-12-08T08:03:04.532Z,97112.63
2022-12-08T08:05:31.069Z,97116.25
2022-12-08T08:07:57.548Z,97115.44
2022-12-08T08:10:24.059Z,97104.31
2022-12-08T08:12:50.537Z,97103.41
2022-12-08T08:15:17.835Z,97098.34
2022-12-08T08:17:44.312Z,97093.94
2022-12-08T08:20:11.443Z,97097.69
2022-12-08T08:22:37.945Z,97100.69
2022-12-08T08:25:04.541Z,97105.56
2022-12-08T08:27:30.981Z,97104.59
2022-12-08T08:29:57.430Z,97115.50
2022-12-08T08:32:23.895Z,97112.97
2022-12-08T08:34:50.828Z,97122.56
2022-12-08T08:37:17.317Z,97120.66
2022-12-08T08:39:43.794Z,97119.44
2022-12-08T08:42:10.308Z,97116.63
2022-12-08T08:44:38.834Z,97117.97
2022-12-08T08:47:05.396Z,97106.25
2022-12-08T08:49:31.846Z,97105.97
2022-12-08T08:51:58.265Z,97100.03
2022-12-08T08:54:24.718Z,97095.44
2022-12-08T08:56:52.571Z,97083.06
2022-12-08T08:59:19.176Z,97081.69
2022-12-08T09:01:45.722Z,97089.53
2022-12-08T09:04:12.294Z,97091.41
2022-12-08T09:06:38.805Z,97088.78
2022-12-08T09:09:05.396Z,97098.50
2022-12-08T09:11:32.181Z,97104.63
2022-12-08T09:13:58.713Z,97096.56
2022-12-08T09:16:25.487Z,97096.22
2022-12-08T09:18:52.161Z,97092.25
2022-12-08T09:21:22.613Z,97080.56
2022-12-08T09:23:50.096Z,97084.66
2022-12-08T09:26:16.652Z,97078.91
2022-12-08T09:28:46.387Z,97075.25
2022-12-08T09:31:17.060Z,97072.06
2022-12-08T09:33:43.721Z,97071.91
2022-12-08T09:36:10.923Z,97070.69
2022-12-08T09:38:38.149Z,97074.00
2022-12-08T09:41:10.448Z,97073.69
2022-12-08T09:44:02.598Z,97073.28
2022-12-08T09:46:30.768Z,97064.91
2022-12-08T09:48:58.194Z,97067.75
2022-12-08T09:51:25.832Z,97077.97
2022-12-08T09:53:55.061Z,97073.31
2022-12-08T09:56:23.268Z,97058.00
2022-12-08T09:58:55.290Z,97064.25
2022-12-08T10:01:22.960Z,97064.75
2022-12-08T10:03:49.682Z,97061.47
2022-12-08T10:06:39.453Z,97069.25
2022-12-08T10:09:23.160Z,97068.16
2022-12-08T10:11:58.744Z,97047.56
2022-12-08T10:14:25.163Z,97049.94
2022-12-08T10:16:55.591Z,97040.50
2022-12-08T10:19:23.340Z,97035.38
2022-12-08T10:21:50.308Z,97025.50
2022-12-08T10:24:17.212Z,97021.47
2022-12-08T10:26:44.116Z,97022.75
2022-12-08T10:29:13.599Z,97029.03
2022-12-08T10:31:40.186Z,97027.00
2022-12-08T10:34:17.872Z,97026.28
2022-12-08T10:36:46.233Z,97018.31
2022-12-08T10:39:28.749Z,97009.88
2022-12-08T10:42:00.357Z,97006.72
2022-12-08T10:44:27.148Z,97002.06
2022-12-08T10:46:53.741Z,97000.50
2022-12-08T10:49:28.889Z,96996.19
2022-12-08T10:51:55.396Z,96971.53
2022-12-08T10:54:32.309Z,96971.97
2022-12-08T10:56:58.997Z,96956.94
2022-12-08T10:59:25.750Z,96949.88
2022-12-08T11:01:54.417Z,96950.38
2022-12-08T11:04:30.993Z,96960.41
2022-12-08T11:06:57.561Z,96949.06
2022-12-08T11:09:26.018Z,96941.66
2022-12-08T11:12:09.837Z,96947.22
2022-12-08T11:14:36.254Z,96932.34
2022-12-08T11:17:05.590Z,96935.47
2022-12-08T11:19:36.736Z,96948.06
2022-12-08T11:22:20.054Z,96948.06
2022-12-08T11:24:56.233Z,96945.94
2022-12-08T11:27:22.765Z,96944.88
2022-12-08T11:29:49.224Z,96935.19
2022-12-08T11:32:15.743Z,96931.44
2022-12-08T11:34:44.775Z,96935.03
2022-12-08T11:37:18.198Z,96932.22
2022-12-08T11:39:47.378Z,96930.31
2022-12-08T11:42:15.939Z,96939.44
2022-12-08T11:44:46.708Z,96920.28
2022-12-08T11:47:17.717Z,96932.13
2022-12-08T11:52:22.502Z,96927.59
2022-12-08T11:54:52.441Z,96918.59
2022-12-08T11:57:20.902Z,96912.09
2022-12-08T11:59:49.681Z,96913.69
2022-12-08T12:02:24.157Z,96910.84
2022-12-08T12:04:59.688Z,96900.75
2022-12-08T12:07:45.263Z,96907.03
2022-12-08T12:10:14.830Z,96902.09
2022-12-08T12:12:58.370Z,96902.13
2022-12-08T12:15:30.938Z,96898.22
2022-12-08T12:18:05.411Z,96897.34
2022-12-08T12:20:33.581Z,96892.31
2022-12-08T12:23:06.343Z,96898.19
2022-12-08T12:25:35.271Z,96889.09
2022-12-08T12:28:06.958Z,96889.06
2022-12-08T12:30:52.538Z,96885.38
2022-12-08T12:33:19.808Z,96885.25
2022-12-08T12:35:48.167Z,96871.47
2022-12-08T12:38:50.039Z,96871.19
2022-12-08T12:41:25.334Z,96876.25
2022-12-08T12:44:11.357Z,96874.22
2022-12-08T12:46:40.042Z,96857.44
2022-12-08T12:49:25.093Z,96858.41
2022-12-08T12:51:55.474Z,96861.00
2022-12-08T12:54:26.200Z,96860.66
2022-12-08T12:56:52.652Z,96857.41
2022-12-08T12:59:31.161Z,96859.94
2022-12-08T13:01:58.278Z,96851.81
2022-12-08T13:04:33.118Z,96850.06
2022-12-08T13:06:59.794Z,96849.06
2022-12-08T13:09:31.745Z,96848.88
2022-12-08T13:11:59.900Z,96851.69
2022-12-08T13:14:28.326Z,96845.81
2022-12-08T13:16:56.234Z,96840.00
2022-12-08T13:19:22.866Z,96845.63
2022-12-08T13:21:49.305Z,96852.66
2022-12-08T13:24:27.721Z,96846.13
2022-12-08T13:27:03.204Z,96846.09
2022-12-08T13:29:30.109Z,96836.88
2022-12-08T13:31:56.984Z,96844.66
2022-12-08T13:34:42.061Z,96843.53
2022-12-08T13:37:11.492Z,96843.59
2022-12-08T13:39:40.830Z,96845.47
2022-12-08T13:42:16.515Z,96843.47
2022-12-08T13:48:20.860Z,96839.00
2022-12-08T13:59:20.374Z,96850.31
2022-12-08T14:01:50.688Z,96841.13
2022-12-08T14:04:47.494Z,96847.78
2022-12-08T14:07:09.474Z,96853.06
2022-12-08T14:09:37.132Z,96852.38
2022-12-08T14:12:06.558Z,96849.66
2022-12-08T14:15:01.848Z,96857.47
2022-12-08T14:17:26.095Z,96854.66
2022-12-08T14:20:00.335Z,96859.81
2022-12-08T14:22:33.876Z,96858.31
2022-12-08T14:25:00.400Z,96856.72
2022-12-08T14:27:29.990Z,96862.78
2022-12-08T14:29:57.856Z,96858.09
2022-12-08T14:32:34.831Z,96855.41
2022-12-08T14:35:07.636Z,96866.28
2022-12-08T14:37:54.667Z,96862.63
2022-12-08T14:40:23.925Z,96866.28
2022-12-08T14:43:05.029Z,96868.59
2022-12-08T14:45:34.984Z,96869.97
2022-12-08T14:48:20.195Z,96875.78
2022-12-08T14:50:57.356Z,96874.44
2022-12-08T14:53:24.206Z,96874.00
2022-12-08T14:55:51.377Z,96866.66
2022-12-08T14:58:25.721Z,96875.88
2022-12-08T15:00:54.574Z,96873.16
2022-12-08T15:03:21.855Z,96872.59
2022-12-08T15:05:51.543Z,96876.13
2022-12-08T15:08:18.552Z,96880.50
2022-12-08T15:10:48.139Z,96876.16
2022-12-08T15:13:16.322Z,96874.50
2022-12-08T15:15:53.387Z,96876.13
2022-12-08T15:18:31.233Z,96867.72
2022-12-08T15:21:02.026Z,96875.75
2022-12-08T15:23:30.680Z,96874.06
2022-12-08T15:25:57.427Z,96871.59
2022-12-08T15:28:29.514Z,96873.72
2022-12-08T15:30:57.313Z,96872.50
2022-12-08T15:33:24.023Z,96864.72
2022-12-08T15:35:50.873Z,96868.16
2022-12-08T15:38:28.640Z,96866.00
2022-12-08T15:40:56.090Z,96877.22
2022-12-08T15:43:22.675Z,96880.50
2022-12-08T15:45:58.347Z,96881.75
2022-12-08T15:48:29.225Z,96876.94
2022-12-08T15:50:56.381Z,96870.75
2022-12-08T15:53:22.843Z,96864.56
2022-12-08T15:56:18.992Z,96859.00
2022-12-08T15:58:54.275Z,96863.19
2022-12-08T16:01:22.111Z,96868.66
2022-12-08T16:09:25.477Z,96875.25
2022-12-08T16:12:10.834Z,96880.03
2022-12-08T16:17:24.498Z,96883.13
2022-12-08T16:19:51.018Z,96879.19
2022-12-08T16:25:22.393Z,96882.72
2022-12-08T16:28:01.453Z,96876.44
2022-12-08T16:30:29.970Z,96872.00
2022-12-08T16:32:56.366Z,96871.88
2022-12-08T16:35:22.788Z,96877.09
2022-12-08T16:37:49.259Z,96880.22
2022-12-08T16:40:15.764Z,96897.31
2022-12-08T16:42:49.992Z,96885.63
2022-12-08T16:45:16.638Z,96888.69
2022-12-08T16:47:47.825Z,96895.97
2022-12-08T16:50:19.554Z,96886.72
2022-12-08T16:52:46.554Z,96880.50
2022-12-08T16:55:17.517Z,96881.53
2022-12-08T16:57:44.528Z,96879.97
2022-12-08T17:00:17.369Z,96870.94
2022-12-08T17:02:45.284Z,96878.47
2022-12-08T17:05:16.139Z,96879.88
2022-12-08T17:07:43.897Z,96883.91
2022-12-08T17:10:12.301Z,96872.50
2022-12-08T17:12:38.762Z,96868.34
2022-12-08T17:15:06.556Z,96870.81
2022-12-08T17:17:35.297Z,96871.97
2022-12-08T17:20:04.883Z,96874.09
2022-12-08T17:22:32.290Z,96870.38
2022-12-08T17:24:58.828Z,96865.56
2022-12-08T17:27:25.314Z,96868.00
2022-12-08T17:29:51.737Z,96861.94
2022-12-08T17:32:18.718Z,96865.84
2022-12-08T17:34:45.669Z,96868.44
2022-12-08T17:37:12.226Z,96872.31
2022-12-08T17:39:38.806Z,96873.09
2022-12-08T17:42:07.169Z,96863.66
2022-12-08T17:44:33.735Z,96873.22
2022-12-08T17:47:00.387Z,96875.16
2022-12-08T17:49:29.717Z,96867.47
2022-12-08T17:51:57.589Z,96873.56
2022-12-08T17:54:24.537Z,96877.19
2022-12-08T17:56:51.435Z,96877.41
2022-12-08T17:59:18.393Z,96878.56
2022-12-08T18:01:45.107Z,96876.88
2022-12-08T18:04:12.254Z,96870.47
2022-12-08T18:06:39.278Z,96876.88
2022-12-08T18:09:06.984Z,96874.91
2022-12-08T18:11:34.277Z,96876.81
2022-12-08T18:14:03.208Z,96876.25
2022-12-08T18:16:30.454Z,96867.00
2022-12-08T18:18:56.972Z,96874.06
2022-12-08T18:21:23.949Z,96871.78
2022-12-08T18:23:50.669Z,96868.97
2022-12-08T18:26:17.165Z,96872.31
2022-12-08T18:28:43.653Z,96875.06
2022-12-08T18:31:11.697Z,96877.41
2022-12-08T18:33:39.806Z,96873.38
2022-12-08T18:36:10.489Z,96875.72
2022-12-08T18:38:37.701Z,96876.25
2022-12-08T18:41:07.163Z,96875.06
2022-12-08T18:43:34.014Z,96870.16
2022-12-08T18:46:01.419Z,96871.25
2022-12-08T18:48:27.972Z,96862.59
2022-12-08T18:50:54.397Z,96866.53
2022-12-08T18:53:20.891Z,96865.13
2022-12-08T18:55:47.541Z,96869.06
2022-12-08T18:58:14.505Z,96851.25
2022-12-08T19:00:40.960Z,96848.88
2022-12-08T19:03:07.457Z,96845.47
2022-12-08T19:05:33.950Z,96840.69
2022-12-08T19:08:00.483Z,96847.59
2022-12-08T19:10:27.018Z,96854.66
2022-12-08T19:12:53.591Z,96855.25
2022-12-08T19:15:20.436Z,96858.00
2022-12-08T19:17:46.854Z,96862.06
2022-12-08T19:20:13.550Z,96857.47
2022-12-08T19:22:40.032Z,96848.78
2022-12-08T19:25:06.646Z,96853.66
2022-12-08T19:27:34.173Z,96864.09
2022-12-08T19:30:00.608Z,96866.97
2022-12-08T19:32:27.130Z,96871.34
2022-12-08T19:34:53.652Z,96878.56
2022-12-08T19:37:20.085Z,96879.13
2022-12-08T19:40:05.744Z,96881.84
2022-12-08T19:42:51.171Z,96871.38
2022-12-08T19:45:19.920Z,96874.00
2022-12-08T19:47:46.638Z,96871.72
2022-12-08T19:50:49.777Z,96868.16
2022-12-08T19:53:16.701Z,96875.47
2022-12-08T19:55:43.831Z,96866.84
2022-12-08T19:58:11.112Z,96873.13
2022-12-08T20:00:39.114Z,96872.31
2022-12-08T20:03:06.257Z,96870.91
2022-12-08T20:05:33.869Z,96872.22
2022-12-08T20:08:00.344Z,96875.34
2022-12-08T20:10:33.778Z,96878.56
2022-12-08T20:13:19.067Z,96888.94
2022-12-08T20:15:45.698Z,96893.53
2022-12-08T20:18:12.823Z,96892.31
2022-12-08T20:20:39.672Z,96886.22
2022-12-08T20:23:06.485Z,96895.38
2022-12-08T20:25:33.079Z,96888.03
2022-12-08T20:27:59.605Z,96886.53
2022-12-08T20:30:26.114Z,96887.31
2022-12-08T20:32:52.566Z,96877.97
2022-12-08T20:35:19.014Z,96863.78
2022-12-08T20:37:45.524Z,96859.72
2022-12-08T20:40:12.126Z,96868.44
2022-12-08T20:42:38.576Z,96868.22
2022-12-08T20:45:07.245Z,96872.22
2022-12-08T20:47:34.071Z,96877.09
2022-12-08T20:50:00.703Z,96876.41
2022-12-08T20:52:27.238Z,96880.63
2022-12-08T20:54:53.863Z,96870.84
2022-12-08T20:57:20.403Z,96870.84
2022-12-08T20:59:46.922Z,96875.78
2022-12-08T21:02:13.454Z,96874.13
2022-12-08T21:04:40.212Z,96872.09
2022-12-08T21:07:08.921Z,96871.69
2022-12-08T21:09:36.241Z,96862.09
2022-12-08T21:12:02.854Z,96858.97
2022-12-08T21:14:29.427Z,96865.22
2022-12-08T21:16:56.254Z,96871.97
2022-12-08T21:19:22.809Z,96863.38
2022-12-08T21:21:50.809Z,96880.28
2022-12-08T21:24:18.066Z,96880.81
2022-12-08T21:26:45.914Z,96873.81
2022-12-08T21:29:12.868Z,96868.91
2022-12-08T21:31:39.817Z,96867.38
2022-12-08T21:34:06.695Z,96865.81
2022-12-08T21:36:33.387Z,96866.63
2022-12-08T21:39:02.423Z,96872.72
2022-12-08T21:41:47.701Z,96869.22
2022-12-08T21:44:15.560Z,96871.97
2022-12-08T21:46:42.425Z,96875.38
2022-12-08T21:49:09.276Z,96878.16
2022-12-08T21:51:37.901Z,96886.47
2022-12-08T21:54:04.954Z,96892.84
2022-12-08T21:56:31.843Z,96896.81
2022-12-08T21:58:58.361Z,96888.88
2022-12-08T22:01:24.947Z,96885.63
2022-12-08T22:03:51.797Z,96870.81
2022-12-08T22:06:18.382Z,96869.38
2022-12-08T22:08:45.226Z,96867.25
2022-12-08T22:11:12.163Z,96863.31
2022-12-08T22:13:39.763Z,96858.34
2022-12-08T22:16:08.120Z,96853.94
2022-12-08T22:18:35.615Z,96864.91
2022-12-08T22:21:02.568Z,96868.22
2022-12-08T22:23:29.267Z,96858.34
2022-12-08T22:25:59.647Z,96854.50
2022-12-08T22:28:27.128Z,96847.81
2022-12-08T22:30:54.794Z,96854.94
2022-12-08T22:33:21.339Z,96844.94
2022-12-08T22:35:57.962Z,96843.72
2022-12-08T22:38:25.052Z,96842.56
2022-12-08T22:40:52.242Z,96853.41
2022-12-08T22:43:18.752Z,96856.06
2022-12-08T22:45:45.371Z,96851.28
2022-12-08T22:48:12.034Z,96857.28
2022-12-08T22:50:38.627Z,96853.22
2022-12-08T22:53:05.358Z,96849.91
2022-12-08T22:55:31.889Z,96848.59
2022-12-08T22:57:58.573Z,96850.09
2022-12-08T23:00:25.110Z,96843.00
2022-12-08T23:02:51.748Z,96842.22
2022-12-08T23:05:18.533Z,96847.22
2022-12-08T23:07:45.451Z,96850.34
2022-12-08T23:10:12.282Z,96849.78
2022-12-08T23:12:38.969Z,96847.56
2022-12-08T23:15:05.732Z,96851.31
2022-12-08T23:17:32.478Z,96850.16
2022-12-08T23:19:59.244Z,96843.41
2022-12-08T23:22:25.861Z,96839.66
2022-12-08T23:24:52.378Z,96841.00
2022-12-08T23:27:19.127Z,96838.72
2022-12-08T23:29:45.837Z,96845.78
2022-12-08T23:32:12.427Z,96847.44
2022-12-08T23:34:38.899Z,96845.28
2022-12-08T23:37:05.356Z,96843.06
2022-12-08T23:39:32.089Z,96834.31
2022-12-08T23:41:58.549Z,96831.06
2022-12-08T23:44:25.099Z,96832.06
2022-12-08T23:46:51.701Z,96823.69
2022-12-08T23:49:18.241Z,96821.41
2022-12-08T23:51:44.810Z,96818.88
2022-12-08T23:54:11.341Z,96811.34
2022-12-08T23:56:37.852Z,96816.34
2022-12-08T23:59:04.323Z,96816.25
